Time;durP1;ratioP1;P1;durP2;ratioP2;P2;SDS_P1;SDS_P2;PMS_P1;PMS_P2;Temp;Humidity;BMP_temperature;BMP_pressure;BME280_temperature;BME280_humidity;BME280_pressure;Samples;Min_cycle;Max_cycle;Signal;HPM_P1;HPM_P2
2022/07/06 00:01:14;;;;;;;3.90;2.10;;;;;;;30.92;34.43;96863.13;5075087;28;20103;-26
2022/07/06 00:03:40;;;;;;;2.35;1.58;;;;;;;30.92;34.14;96852.69;5075350;28;20052;-26
2022/07/06 00:06:05;;;;;;;4.88;2.00;;;;;;;30.90;34.07;96852.53;5074981;28;20055;-26
2022/07/06 00:08:31;;;;;;;4.47;1.50;;;;;;;30.85;33.82;96845.00;5075092;28;20052;-27
2022/07/06 00:10:56;;;;;;;4.53;1.67;;;;;;;30.83;33.89;96847.63;5075073;28;20029;-27
2022/07/06 00:13:22;;;;;;;3.13;1.60;;;;;;;30.89;34.07;96851.03;5075069;28;20020;-27
2022/07/06 00:15:47;;;;;;;3.53;1.42;;;;;;;30.86;34.01;96843.72;5074878;28;20042;-26
2022/07/06 00:18:13;;;;;;;2.85;1.33;;;;;;;30.86;33.89;96845.78;5074885;28;20025;-26
2022/07/06 00:20:38;;;;;;;5.50;1.50;;;;;;;30.86;33.90;96849.31;5074812;28;20459;-26
2022/07/06 00:23:04;;;;;;;2.42;1.50;;;;;;;30.86;33.85;96849.31;5074820;28;20036;-26
2022/07/06 00:25:29;;;;;;;6.05;1.73;;;;;;;30.88;34.04;96843.91;5074792;28;20029;-27
2022/07/06 00:27:55;;;;;;;2.70;1.45;;;;;;;30.83;34.46;96842.00;5074854;28;20435;-26
2022/07/06 00:30:20;;;;;;;4.00;1.70;;;;;;;30.85;33.96;96842.22;5074816;28;20024;-26
2022/07/06 00:32:46;;;;;;;4.97;1.70;;;;;;;30.85;34.01;96839.41;5074541;28;20044;-26
2022/07/06 00:35:12;;;;;;;4.13;1.85;;;;;;;30.82;33.99;96840.50;5074580;28;20028;-27
2022/07/06 00:37:37;;;;;;;3.95;1.65;;;;;;;30.81;34.33;96836.22;5074406;28;20024;-29
2022/07/06 00:40:03;;;;;;;2.72;1.60;;;;;;;30.85;33.91;96845.00;5074601;28;20458;-27
2022/07/06 00:42:29;;;;;;;2.22;1.65;;;;;;;30.86;33.91;96843.72;5074703;28;20051;-26
2022/07/06 00:44:54;;;;;;;3.05;1.48;;;;;;;30.82;34.33;96853.78;5091298;28;20063;-26
2022/07/06 00:47:20;;;;;;;4.30;1.85;;;;;;;30.83;33.80;96850.41;5082961;28;20470;-27
2022/07/06 00:52:30;;;;;;;3.15;1.73;;;;;;;30.79;34.46;96855.63;5074031;28;20094;-27
2022/07/06 00:54:55;;;;;;;3.58;1.60;;;;;;;30.79;34.34;96857.66;5074333;28;20028;-27
2022/07/06 00:57:21;;;;;;;3.90;1.70;;;;;;;30.79;33.70;96847.22;5074256;28;20483;-26
2022/07/06 00:59:47;;;;;;;3.67;1.70;;;;;;;30.81;34.24;96846.66;5074130;28;20054;-26
2022/07/06 01:02:12;;;;;;;4.10;1.98;;;;;;;30.80;34.26;96848.72;5074115;28;20371;-27
2022/07/06 01:04:38;;;;;;;3.75;1.67;;;;;;;30.80;34.33;96843.13;5074114;28;20394;-27
2022/07/06 01:07:03;;;;;;;2.50;1.58;;;;;;;30.79;33.87;96830.41;5073913;28;20486;-26
2022/07/06 01:09:29;;;;;;;3.40;1.58;;;;;;;30.78;34.09;96825.41;5073921;28;20020;-27
2022/07/06 01:11:54;;;;;;;2.42;1.50;;;;;;;30.76;33.86;96828.75;5073809;28;20048;-27
2022/07/06 01:14:20;;;;;;;2.53;1.48;;;;;;;30.74;34.10;96827.78;5073944;28;20029;-26
2022/07/06 01:16:46;;;;;;;3.15;1.75;;;;;;;30.77;34.20;96841.44;5074095;28;20031;-26
2022/07/06 01:19:11;;;;;;;2.35;1.70;;;;;;;30.71;34.11;96836.00;5073564;28;20082;-27
2022/07/06 01:21:40;;;;;;;5.03;1.98;;;;;;;30.70;34.09;96826.09;5073813;28;20459;-26
2022/07/06 01:24:06;;;;;;;3.42;1.70;;;;;;;30.72;34.18;96825.53;5073868;28;20047;-26
2022/07/06 01:26:32;;;;;;;4.45;1.90;;;;;;;30.78;33.99;96828.19;5073639;28;20467;-27
2022/07/06 01:28:57;;;;;;;3.08;1.70;;;;;;;30.73;33.93;96827.03;5073808;28;20171;-26
2022/07/06 01:31:24;;;;;;;2.97;1.77;;;;;;;30.69;33.68;96827.38;5073401;28;20063;-26
2022/07/06 01:33:52;;;;;;;3.42;1.50;;;;;;;30.70;33.98;96817.69;5073563;28;20386;-26
2022/07/06 01:36:17;;;;;;;3.75;1.77;;;;;;;30.74;33.88;96825.75;5073347;28;20037;-26
2022/07/06 01:38:51;;;;;;;2.95;1.67;;;;;;;30.70;33.85;96825.34;5073443;28;20442;-26
2022/07/06 01:41:18;;;;;;;2.55;1.83;;;;;;;30.68;33.76;96833.53;5073509;28;20423;-27
2022/07/06 01:43:44;;;;;;;2.78;1.50;;;;;;;30.66;33.59;96833.38;5073406;28;20027;-26
2022/07/06 01:46:10;;;;;;;4.28;1.75;;;;;;;30.62;33.61;96830.16;5073698;28;20100;-27
2022/07/06 01:48:36;;;;;;;2.58;1.50;;;;;;;30.60;33.61;96824.38;5073601;28;20471;-27
2022/07/06 01:51:03;;;;;;;2.45;1.58;;;;;;;30.61;34.09;96817.47;5073347;28;20043;-27
2022/07/06 01:53:28;;;;;;;3.03;1.50;;;;;;;30.65;33.64;96824.22;5073256;28;20040;-26
2022/07/06 01:55:54;;;;;;;4.85;1.85;;;;;;;30.63;33.36;96821.22;5073359;28;20016;-27
2022/07/06 01:58:19;;;;;;;5.03;2.00;;;;;;;30.60;33.77;96819.50;5073264;28;20107;-26
2022/07/06 02:00:45;;;;;;;3.65;2.05;;;;;;;30.58;34.03;96822.13;5073085;28;20020;-28
2022/07/06 02:03:10;;;;;;;2.70;1.98;;;;;;;30.60;33.43;96818.75;5073134;28;20086;-27
2022/07/06 02:05:35;;;;;;;3.15;1.70;;;;;;;30.57;33.34;96819.88;5072633;28;20032;-26
2022/07/06 02:08:01;;;;;;;4.22;1.90;;;;;;;30.62;33.72;96825.31;5073004;28;20108;-27
2022/07/06 02:10:26;;;;;;;3.97;1.80;;;;;;;30.58;33.65;96829.75;5073135;28;20381;-27
2022/07/06 02:12:52;;;;;;;6.97;2.17;;;;;;;30.55;33.35;96820.41;5073099;28;20024;-28
2022/07/06 02:15:17;;;;;;;4.75;1.98;;;;;;;30.53;33.56;96816.66;5073161;28;20021;-27
2022/07/06 02:17:43;;;;;;;5.45;1.67;;;;;;;30.56;33.11;96823.97;5072959;28;20021;-28
2022/07/06 02:20:09;;;;;;;2.80;1.90;;;;;;;30.58;33.06;96830.50;5072977;28;20383;-27
2022/07/06 02:22:34;;;;;;;3.03;1.92;;;;;;;30.56;33.14;96815.56;5073226;28;20367;-26
2022/07/06 02:25:00;;;;;;;2.50;1.90;;;;;;;30.56;32.98;96812.75;5072999;28;20055;-27
2022/07/06 02:27:25;;;;;;;4.07;1.67;;;;;;;30.52;33.26;96815.16;5072918;28;20063;-26
2022/07/06 02:29:51;;;;;;;5.68;1.95;;;;;;;30.43;33.50;96807.25;5072903;28;20028;-26
2022/07/06 02:32:16;;;;;;;3.72;2.10;;;;;;;30.44;32.95;96803.91;5072832;28;20052;-26
2022/07/06 02:34:43;;;;;;;3.47;1.85;;;;;;;30.49;33.41;96810.66;5073239;28;20055;-26
2022/07/06 02:37:08;;;;;;;3.25;1.90;;;;;;;30.46;33.31;96804.09;5071555;28;20462;-26
2022/07/06 02:39:34;;;;;;;4.95;1.90;;;;;;;30.45;32.92;96799.06;5072833;28;20025;-26
2022/07/06 02:42:00;;;;;;;3.53;1.80;;;;;;;30.46;33.26;96806.16;5072989;28;20032;-26
2022/07/06 02:44:26;;;;;;;3.75;1.92;;;;;;;30.45;32.88;96810.25;5071669;28;20028;-26
2022/07/06 02:46:51;;;;;;;2.72;1.83;;;;;;;30.41;33.20;96798.69;5072874;28;20017;-26
2022/07/06 02:49:16;;;;;;;4.18;2.20;;;;;;;30.39;32.94;96810.41;5072687;28;20054;-26
2022/07/06 02:51:42;;;;;;;4.32;1.90;;;;;;;30.43;32.84;96805.19;5072726;28;20385;-26
2022/07/06 02:54:07;;;;;;;3.42;1.95;;;;;;;30.46;32.91;96806.16;5072670;28;20040;-26
2022/07/06 02:56:33;;;;;;;3.70;2.05;;;;;;;30.41;32.86;96810.63;5072683;28;20028;-27
2022/07/06 02:58:58;;;;;;;3.33;2.30;;;;;;;30.36;33.35;96812.25;5072650;28;20016;-26
2022/07/06 03:01:24;;;;;;;3.70;2.00;;;;;;;30.40;33.20;96806.31;5072715;28;20021;-26
2022/07/06 03:03:49;;;;;;;7.43;2.10;;;;;;;30.39;33.08;96793.63;5072845;28;20029;-26
2022/07/06 03:06:15;;;;;;;4.53;2.25;;;;;;;30.33;33.14;96793.78;5072481;28;20052;-26
2022/07/06 03:08:40;;;;;;;4.40;2.22;;;;;;;30.34;32.93;96789.69;5072810;28;20481;-26
2022/07/06 03:11:06;;;;;;;4.90;2.40;;;;;;;30.38;33.21;96797.72;5071106;28;20073;-26
2022/07/06 03:13:31;;;;;;;3.13;1.90;;;;;;;30.36;33.28;96794.72;5072459;28;20021;-27
2022/07/06 03:15:57;;;;;;;4.07;2.38;;;;;;;30.34;33.17;96791.72;5072496;28;20025;-27
2022/07/06 03:18:22;;;;;;;3.55;2.03;;;;;;;30.40;33.05;96788.78;5074970;28;20039;-26
2022/07/06 03:20:48;;;;;;;2.63;2.10;;;;;;;30.36;33.27;96798.28;5075918;28;20029;-27
2022/07/06 03:23:13;;;;;;;4.50;2.00;;;;;;;30.34;33.29;96809.25;5075923;28;20025;-26
2022/07/06 03:25:39;;;;;;;3.30;1.90;;;;;;;30.37;32.90;96804.63;5076237;28;20470;-27
2022/07/06 03:28:04;;;;;;;3.25;1.88;;;;;;;30.32;33.18;96800.66;5076061;28;20024;-26
2022/07/06 03:30:30;;;;;;;2.85;2.00;;;;;;;30.33;33.02;96796.56;5075903;28;20048;-26
2022/07/06 03:32:55;;;;;;;5.03;2.40;;;;;;;30.32;33.14;96795.06;5075735;28;20390;-26
2022/07/06 03:35:20;;;;;;;4.57;2.50;;;;;;;30.32;33.37;96797.88;5075909;28;20465;-27
2022/07/06 03:37:46;;;;;;;4.40;2.10;;;;;;;30.29;33.05;96807.34;5075675;28;20463;-26
2022/07/06 03:40:12;;;;;;;4.47;2.30;;;;;;;30.26;33.41;96813.31;5075796;28;20173;-27
2022/07/06 03:42:37;;;;;;;2.90;2.10;;;;;;;30.32;32.88;96806.25;5074350;28;20086;-26
2022/07/06 03:45:04;;;;;;;3.65;2.10;;;;;;;30.31;33.16;96815.22;5075646;28;20040;-27
2022/07/06 03:47:29;;;;;;;4.30;2.35;;;;;;;30.23;33.07;96808.81;5075351;28;20598;-26
2022/07/06 03:49:55;;;;;;;4.13;2.05;;;;;;;30.26;33.06;96805.69;5075559;28;20032;-27
2022/07/06 03:52:21;;;;;;;3.78;2.20;;;;;;;30.23;33.12;96812.38;5075429;28;20020;-28
2022/07/06 03:54:46;;;;;;;3.90;2.05;;;;;;;30.25;33.13;96815.38;5075317;28;20020;-28
2022/07/06 03:57:13;;;;;;;3.55;2.10;;;;;;;30.28;33.27;96811.47;5075670;28;20115;-27
2022/07/06 03:59:42;;;;;;;8.10;2.00;;;;;;;30.24;33.59;96813.88;5073924;28;20020;-26
2022/07/06 04:02:07;;;;;;;5.65;2.22;;;;;;;30.22;33.48;96810.88;5075376;28;20024;-26
2022/07/06 04:04:36;;;;;;;5.63;2.85;;;;;;;30.27;33.32;96821.16;5075353;28;20111;-27
2022/07/06 04:07:01;;;;;;;5.93;2.35;;;;;;;30.25;33.39;96812.56;5074945;28;20123;-26
2022/07/06 04:09:27;;;;;;;4.07;2.30;;;;;;;30.29;33.66;96815.75;5075127;28;20063;-26
2022/07/06 04:11:52;;;;;;;4.15;2.42;;;;;;;30.24;33.28;96815.91;5075007;28;20056;-27
2022/07/06 04:14:18;;;;;;;7.43;2.47;;;;;;;30.24;33.35;96808.28;5074770;28;20032;-26
2022/07/06 04:16:43;;;;;;;4.28;2.33;;;;;;;30.22;33.49;96813.66;5075280;28;20024;-26
2022/07/06 04:19:09;;;;;;;5.03;2.33;;;;;;;30.21;33.43;96809.38;5074876;28;20024;-26
2022/07/06 04:21:34;;;;;;;5.72;2.40;;;;;;;30.25;33.65;96809.78;5075016;28;20025;-26
2022/07/06 04:24:00;;;;;;;6.68;2.65;;;;;;;30.19;33.48;96803.56;5074948;28;20512;-26
2022/07/06 04:26:26;;;;;;;6.90;2.60;;;;;;;30.20;33.76;96804.31;5074923;28;20033;-26
2022/07/06 04:28:51;;;;;;;5.38;2.20;;;;;;;30.21;33.65;96811.41;5074453;28;20032;-26
2022/07/06 04:31:17;;;;;;;7.22;2.55;;;;;;;30.22;33.60;96802.47;5074376;28;20027;-26
2022/07/06 04:33:42;;;;;;;8.05;2.33;;;;;;;30.17;33.53;96806.16;5074777;28;20443;-26
2022/07/06 04:36:09;;;;;;;4.45;2.50;;;;;;;30.16;33.59;96804.69;5074425;28;20028;-26
2022/07/06 04:38:35;;;;;;;3.80;2.25;;;;;;;30.16;33.84;96813.09;5074535;28;20032;-26
2022/07/06 04:41:00;;;;;;;5.45;2.33;;;;;;;30.14;33.60;96803.72;5074876;28;20024;-27
2022/07/06 04:43:26;;;;;;;12.93;3.25;;;;;;;30.11;33.88;96808.38;5074692;28;20466;-26
2022/07/06 04:45:51;;;;;;;9.20;2.85;;;;;;;30.14;33.93;96807.28;5074223;28;20055;-26
2022/07/06 04:48:17;;;;;;;7.30;2.70;;;;;;;30.14;34.03;96809.31;5074531;28;20127;-26
2022/07/06 04:50:43;;;;;;;9.90;3.00;;;;;;;30.12;33.85;96809.88;5074348;28;20016;-27
2022/07/06 04:53:09;;;;;;;6.50;2.75;;;;;;;30.16;33.86;96807.47;5074207;28;20020;-26
2022/07/06 04:55:34;;;;;;;7.18;2.85;;;;;;;30.11;34.02;96808.38;5074226;28;20028;-26
2022/07/06 04:58:00;;;;;;;8.77;2.83;;;;;;;30.12;34.28;96803.53;5074131;28;20028;-26
2022/07/06 05:00:25;;;;;;;5.05;3.25;;;;;;;30.16;34.12;96801.13;5074093;28;20032;-29
2022/07/06 05:02:51;;;;;;;9.95;3.65;;;;;;;30.14;34.22;96807.28;5074126;28;20073;-26
2022/07/06 05:05:16;;;;;;;5.75;2.70;;;;;;;30.15;34.28;96800.38;5074506;28;20078;-26
2022/07/06 05:07:42;;;;;;;6.32;2.50;;;;;;;30.14;34.30;96803.72;5073885;28;20057;-27
2022/07/06 05:10:09;;;;;;;5.78;2.70;;;;;;;30.15;34.69;96805.22;5074351;28;20099;-27
2022/07/06 05:12:35;;;;;;;5.75;2.63;;;;;;;30.14;34.61;96812.88;5073587;28;20074;-27
2022/07/06 05:15:01;;;;;;;4.53;2.67;;;;;;;30.14;34.65;96806.53;5073783;28;20025;-26
2022/07/06 05:17:26;;;;;;;4.68;2.65;;;;;;;30.16;34.12;96799.09;5073759;28;20059;-26
2022/07/06 05:19:52;;;;;;;3.35;2.55;;;;;;;30.14;34.61;96798.88;5073753;28;20064;-26
2022/07/06 05:22:18;;;;;;;4.53;2.40;;;;;;;30.11;34.66;96810.41;5087710;28;20020;-26
2022/07/06 05:24:44;;;;;;;6.13;2.42;;;;;;;30.11;34.53;96824.41;5092021;28;20057;-26
2022/07/06 05:27:10;;;;;;;5.10;2.58;;;;;;;30.12;34.65;96818.25;5090622;28;20040;-26
2022/07/06 05:29:35;;;;;;;4.47;2.95;;;;;;;30.17;34.76;96822.19;5091868;28;20023;-27
2022/07/06 05:32:01;;;;;;;6.55;2.60;;;;;;;30.17;34.63;96808.97;5091655;28;20062;-26
2022/07/06 05:34:27;;;;;;;5.90;2.42;;;;;;;30.15;34.92;96819.97;5071046;28;20111;-28
2022/07/06 05:36:52;;;;;;;5.53;2.70;;;;;;;30.15;34.93;96822.78;5071498;28;20107;-27
2022/07/06 05:39:21;;;;;;;6.25;2.75;;;;;;;30.13;35.02;96822.56;5071323;28;20028;-27
2022/07/06 05:41:47;;;;;;;7.78;2.65;;;;;;;30.16;34.95;96815.88;5071291;28;20027;-28
2022/07/06 05:44:13;;;;;;;5.95;3.17;;;;;;;30.13;35.14;96816.97;5071283;28;20032;-26
2022/07/06 05:46:38;;;;;;;8.25;2.85;;;;;;;30.17;35.19;96808.22;5071475;28;20024;-26
2022/07/06 05:51:49;;;;;;;7.30;2.47;;;;;;;30.07;35.19;96813.56;5071361;28;20428;-26
2022/07/06 05:54:15;;;;;;;4.32;2.72;;;;;;;30.08;35.39;96814.31;5071384;28;20047;-26
2022/07/06 05:56:40;;;;;;;6.40;3.08;;;;;;;30.09;35.02;96805.38;5071154;28;20401;-27
2022/07/06 05:59:06;;;;;;;5.68;2.65;;;;;;;30.13;35.01;96811.38;5071258;28;20075;-27
2022/07/06 06:01:31;;;;;;;5.32;2.95;;;;;;;30.09;35.38;96815.81;5071282;28;20111;-27
2022/07/06 06:03:57;;;;;;;9.40;3.15;;;;;;;30.12;34.96;96804.28;5071163;28;20177;-26
2022/07/06 06:06:24;;;;;;;10.50;3.05;;;;;;;30.11;35.15;96819.56;5071114;28;20083;-27
2022/07/06 06:08:49;;;;;;;9.13;3.35;;;;;;;30.07;35.43;96807.97;5071068;28;20390;-29
2022/07/06 06:11:14;;;;;;;7.68;2.80;;;;;;;30.14;35.13;96817.72;5090193;28;20027;-26
2022/07/06 06:13:40;;;;;;;5.30;2.83;;;;;;;30.09;35.48;96821.41;5091430;28;20395;-26
2022/07/06 06:16:05;;;;;;;9.50;2.72;;;;;;;30.11;35.17;96813.97;5080905;28;20493;-26
2022/07/06 06:18:31;;;;;;;6.80;2.40;;;;;;;30.13;35.02;96819.00;5073146;28;20501;-27
2022/07/06 06:20:56;;;;;;;6.57;2.85;;;;;;;30.11;35.15;96819.56;5073037;28;20040;-27
2022/07/06 06:23:22;;;;;;;7.90;2.72;;;;;;;29.97;36.53;96815.34;5073329;28;20016;-26
2022/07/06 06:25:47;;;;;;;7.88;3.42;;;;;;;30.02;36.26;96822.84;5073035;28;20044;-26
2022/07/06 06:28:13;;;;;;;6.65;3.25;;;;;;;30.14;35.22;96824.06;5072933;28;20462;-26
2022/07/06 06:30:38;;;;;;;8.38;2.72;;;;;;;30.08;35.21;96831.84;5073332;28;20038;-26
2022/07/06 06:33:05;;;;;;;6.78;2.92;;;;;;;30.14;34.94;96835.25;5073139;28;20441;-26
2022/07/06 06:35:31;;;;;;;10.65;2.60;;;;;;;30.09;35.25;96830.53;5072862;28;20025;-26
2022/07/06 06:37:56;;;;;;;8.57;3.53;;;;;;;30.07;35.50;96830.34;5073015;28;20017;-28
2022/07/06 06:40:22;;;;;;;8.32;2.78;;;;;;;30.11;35.64;96841.94;5072745;28;20025;-27
2022/07/06 06:42:47;;;;;;;8.30;2.97;;;;;;;30.07;35.35;96841.53;5072821;28;20017;-26
2022/07/06 06:45:13;;;;;;;5.05;2.53;;;;;;;30.08;35.73;96845.81;5072770;28;20028;-26
2022/07/06 06:47:38;;;;;;;5.95;2.78;;;;;;;29.84;37.27;96840.56;5072982;28;20100;-27
2022/07/06 06:50:04;;;;;;;9.88;3.15;;;;;;;29.88;36.97;96843.78;5073008;28;20024;-27
2022/07/06 06:52:30;;;;;;;6.45;3.00;;;;;;;29.95;36.89;96851.47;5075611;28;20367;-26
2022/07/06 06:54:55;;;;;;;9.48;2.97;;;;;;;29.98;36.89;96842.78;5076459;28;20020;-26
2022/07/06 06:57:20;;;;;;;5.90;2.50;;;;;;;29.93;36.63;96843.63;5080076;28;20035;-26
2022/07/06 06:59:46;;;;;;;7.13;2.58;;;;;;;29.86;37.29;96851.97;5089673;28;20028;-26
2022/07/06 07:02:11;;;;;;;5.78;2.45;;;;;;;30.04;36.42;96848.25;5095577;28;20016;-26
2022/07/06 07:04:37;;;;;;;3.80;2.47;;;;;;;30.08;36.27;96854.22;5096440;28;20028;-26
2022/07/06 07:07:02;;;;;;;5.57;2.30;;;;;;;29.86;37.59;96849.91;5096470;28;20490;-26
2022/07/06 07:09:28;;;;;;;9.27;2.85;;;;;;;29.72;37.43;96842.13;5096406;28;20107;-26
2022/07/06 07:11:54;;;;;;;6.50;2.83;;;;;;;29.93;37.36;96840.06;5096390;28;20125;-26
2022/07/06 07:14:20;;;;;;;6.75;2.65;;;;;;;29.84;37.48;96841.31;5096645;28;20024;-27
2022/07/06 07:16:45;;;;;;;6.95;2.63;;;;;;;29.81;37.57;96841.66;5096242;28;20102;-26
2022/07/06 07:19:11;;;;;;;5.55;2.63;;;;;;;29.97;37.00;96844.06;5092567;28;20031;-28
2022/07/06 07:21:36;;;;;;;4.07;2.50;;;;;;;30.01;36.46;96849.31;5078318;28;20025;-27
2022/07/06 07:24:02;;;;;;;8.65;3.72;;;;;;;29.87;36.96;96854.22;5076090;28;20112;-26
2022/07/06 07:26:28;;;;;;;6.10;2.80;;;;;;;29.84;38.03;96851.75;5076923;28;20036;-26
2022/07/06 07:28:54;;;;;;;4.97;2.60;;;;;;;29.83;37.23;96859.38;5075825;28;20031;-26
2022/07/06 07:31:19;;;;;;;4.40;2.63;;;;;;;29.97;36.92;96857.28;5076106;28;20025;-26
2022/07/06 07:33:45;;;;;;;6.45;2.60;;;;;;;30.11;35.84;96852.38;5075981;28;20083;-26
2022/07/06 07:36:10;;;;;;;4.25;2.50;;;;;;;30.04;35.82;96853.81;5075686;28;20493;-26
2022/07/06 07:38:36;;;;;;;5.10;2.65;;;;;;;30.17;35.25;96844.56;5076019;28;20020;-27
2022/07/06 07:41:01;;;;;;;3.92;2.25;;;;;;;30.15;35.26;96836.75;5075500;28;20029;-27
2022/07/06 07:43:27;;;;;;;7.32;2.50;;;;;;;29.94;36.64;96836.72;5075521;28;20447;-27
2022/07/06 07:45:52;;;;;;;7.75;2.60;;;;;;;30.05;35.68;96838.53;5082972;28;20119;-26
2022/07/06 07:48:18;;;;;;;5.72;2.30;;;;;;;30.08;35.37;96831.84;5079661;28;20059;-26
2022/07/06 07:50:43;;;;;;;4.53;2.58;;;;;;;29.83;36.39;96830.69;5095747;28;20043;-26
2022/07/06 07:53:09;;;;;;;3.40;2.38;;;;;;;29.72;37.17;96823.31;5095713;28;20028;-26
2022/07/06 07:55:34;;;;;;;5.10;2.45;;;;;;;29.86;36.33;96832.38;5094455;28;20129;-26
2022/07/06 07:57:59;;;;;;;4.38;2.30;;;;;;;29.77;36.27;96836.44;5095405;28;20027;-27
2022/07/06 08:00:26;;;;;;;4.82;2.63;;;;;;;29.92;36.48;96838.59;5095993;28;20045;-26
2022/07/06 08:02:52;;;;;;;5.18;2.53;;;;;;;29.80;36.86;96835.31;5095003;28;20363;-26
2022/07/06 08:05:18;;;;;;;4.47;2.67;;;;;;;29.87;36.41;96831.09;5095628;28;20031;-28
2022/07/06 08:07:44;;;;;;;5.00;2.58;;;;;;;29.95;36.30;96832.66;5095436;28;20080;-26
2022/07/06 08:10:10;;;;;;;3.42;2.22;;;;;;;30.09;35.62;96838.94;5094576;28;20446;-26
2022/07/06 08:12:35;;;;;;;3.60;2.30;;;;;;;30.11;35.64;96830.00;5095113;28;20032;-26
2022/07/06 08:15:02;;;;;;;4.05;2.30;;;;;;;30.06;35.72;96834.44;5086507;28;20078;-26
2022/07/06 08:17:28;;;;;;;4.78;2.40;;;;;;;29.80;36.80;96831.75;5072944;28;20059;-26
2022/07/06 08:19:53;;;;;;;4.70;2.50;;;;;;;29.99;36.42;96837.94;5074211;28;20183;-26
2022/07/06 08:22:19;;;;;;;4.18;2.40;;;;;;;30.09;35.93;96840.97;5074910;28;20388;-26
2022/07/06 08:24:44;;;;;;;9.20;2.28;;;;;;;30.10;35.91;96848.06;5074713;28;20024;-26
2022/07/06 08:27:10;;;;;;;8.85;2.80;;;;;;;30.12;35.72;96856.69;5074920;28;20032;-27
2022/07/06 08:29:35;;;;;;;5.43;2.30;;;;;;;30.09;35.81;96850.13;5074855;28;20031;-26
2022/07/06 08:32:01;;;;;;;4.18;2.30;;;;;;;30.11;35.51;96850.31;5074641;28;20028;-29
2022/07/06 08:34:27;;;;;;;5.40;2.40;;;;;;;30.04;35.99;96853.81;5074510;28;20114;-27
2022/07/06 08:36:52;;;;;;;5.57;2.70;;;;;;;29.67;36.72;96860.56;5074481;28;20455;-29
2022/07/06 08:39:18;;;;;;;6.88;2.88;;;;;;;29.46;36.72;96852.16;5073262;28;20083;-28
2022/07/06 08:41:47;;;;;;;5.75;2.47;;;;;;;29.63;36.36;96852.50;5073976;28;20032;-29
2022/07/06 08:44:16;;;;;;;7.43;3.25;;;;;;;29.84;36.05;96860.13;5074466;28;20446;-29
2022/07/06 08:46:42;;;;;;;5.72;2.63;;;;;;;29.95;35.83;96855.00;5074236;28;20105;-29
2022/07/06 08:49:08;;;;;;;5.07;2.50;;;;;;;29.98;35.38;96856.00;5074054;28;20099;-28
2022/07/06 08:51:38;;;;;;;3.95;2.20;;;;;;;30.06;35.65;96853.25;5072582;28;20352;-30
2022/07/06 08:54:04;;;;;;;10.30;2.70;;;;;;;29.99;35.55;96851.91;5073335;28;20118;-29
2022/07/06 08:56:30;;;;;;;6.28;2.30;;;;;;;29.99;35.70;96851.91;5074507;28;20476;-29
2022/07/06 08:58:56;;;;;;;5.45;2.60;;;;;;;29.98;35.75;96853.22;5074060;28;20071;-28
2022/07/06 09:01:22;;;;;;;5.60;2.60;;;;;;;30.03;35.48;96851.56;5074049;28;20021;-28
2022/07/06 09:03:49;;;;;;;5.25;2.33;;;;;;;30.02;35.09;96847.28;5074220;28;20068;-28
2022/07/06 09:06:19;;;;;;;6.00;2.53;;;;;;;30.01;35.21;96854.91;5073912;28;20174;-28
2022/07/06 09:08:46;;;;;;;5.18;2.55;;;;;;;29.96;35.27;96848.16;5073935;28;20023;-29
2022/07/06 09:11:12;;;;;;;3.75;2.55;;;;;;;29.94;35.51;96849.97;5073879;28;20028;-28
2022/07/06 09:13:37;;;;;;;6.53;2.55;;;;;;;29.96;35.61;96853.75;5073917;28;20024;-29
2022/07/06 09:16:11;;;;;;;4.00;2.00;;;;;;;29.98;35.19;96839.22;5073010;28;20483;-28
2022/07/06 09:18:38;;;;;;;7.40;2.88;;;;;;;29.89;35.43;96842.47;5074038;28;20493;-29
2022/07/06 09:21:05;;;;;;;5.85;2.30;;;;;;;29.96;35.28;96836.22;5074021;28;20052;-29
2022/07/06 09:23:30;;;;;;;9.65;2.30;;;;;;;29.97;35.43;96835.69;5073490;28;20027;-30
2022/07/06 09:25:56;;;;;;;5.43;2.72;;;;;;;29.99;35.17;96835.13;5073533;28;20107;-29
2022/07/06 09:28:21;;;;;;;6.45;2.35;;;;;;;29.99;35.46;96835.13;5073723;28;20029;-28
2022/07/06 09:30:47;;;;;;;5.22;2.65;;;;;;;29.98;35.22;96828.03;5073643;28;20094;-28
2022/07/06 09:33:17;;;;;;;5.82;2.42;;;;;;;29.99;35.34;96829.53;5073586;28;20028;-28
2022/07/06 09:35:45;;;;;;;3.85;2.10;;;;;;;29.99;35.14;96830.28;5073467;28;20042;-29
2022/07/06 09:38:14;;;;;;;5.20;2.40;;;;;;;29.95;35.05;96835.44;5073422;28;20075;-28
2022/07/06 09:40:45;;;;;;;5.57;2.80;;;;;;;29.98;34.84;96834.38;5073508;28;20554;-28
2022/07/06 09:43:14;;;;;;;4.22;2.42;;;;;;;29.91;35.25;96835.06;5073357;28;20043;-28
2022/07/06 09:45:46;;;;;;;7.10;2.50;;;;;;;29.94;35.15;96833.19;5073295;28;20028;-28
2022/07/06 09:48:14;;;;;;;4.57;1.98;;;;;;;29.89;34.98;96836.88;5073644;28;20021;-28
2022/07/06 09:50:45;;;;;;;5.70;2.55;;;;;;;29.92;34.89;96838.59;5073434;28;20485;-28
2022/07/06 09:53:12;;;;;;;4.50;2.35;;;;;;;29.81;35.06;96850.03;5073370;28;20096;-28
2022/07/06 09:55:37;;;;;;;6.07;2.38;;;;;;;29.73;34.55;96847.19;5073484;28;20094;-29
2022/07/06 09:58:04;;;;;;;5.90;2.58;;;;;;;29.78;34.89;96842.75;5073248;28;20473;-28
2022/07/06 10:00:29;;;;;;;4.45;2.30;;;;;;;29.81;34.11;96847.25;5073172;28;20035;-28
2022/07/06 10:02:55;;;;;;;5.53;3.00;;;;;;;29.80;34.82;96840.16;5073146;28;20020;-29
2022/07/06 10:05:29;;;;;;;4.53;2.85;;;;;;;29.85;34.52;96851.22;5073146;28;20042;-28
2022/07/06 10:07:57;;;;;;;4.85;2.38;;;;;;;29.94;33.70;96858.34;5073103;28;20040;-28
2022/07/06 10:10:28;;;;;;;5.72;2.15;;;;;;;29.87;33.65;96848.63;5073076;28;20032;-29
2022/07/06 10:12:57;;;;;;;5.60;2.53;;;;;;;29.89;34.08;96853.66;5073033;28;20033;-28
2022/07/06 10:15:25;;;;;;;4.90;2.60;;;;;;;29.92;33.80;96855.38;5073324;28;20451;-28
2022/07/06 10:17:51;;;;;;;5.18;2.38;;;;;;;29.87;33.28;96856.25;5073046;28;20032;-28
2022/07/06 10:20:18;;;;;;;5.25;2.00;;;;;;;29.80;33.31;96854.13;5073320;28;20020;-29
2022/07/06 10:22:45;;;;;;;5.85;1.98;;;;;;;29.80;32.48;96865.31;5073090;28;20382;-28
2022/07/06 10:25:11;;;;;;;5.35;2.15;;;;;;;29.89;32.84;96853.66;5073101;28;20496;-28
2022/07/06 10:27:37;;;;;;;6.53;2.08;;;;;;;29.89;32.29;96854.41;5076156;28;20103;-28
2022/07/06 10:30:04;;;;;;;6.68;2.67;;;;;;;29.94;32.07;96861.91;5077229;28;20516;-30
2022/07/06 10:32:29;;;;;;;8.73;2.70;;;;;;;29.89;32.22;96851.63;5077049;28;20112;-28
2022/07/06 10:34:55;;;;;;;7.30;2.10;;;;;;;29.91;31.88;96862.25;5077284;28;20419;-28
2022/07/06 10:37:27;;;;;;;6.45;2.20;;;;;;;29.89;31.94;96867.66;5076826;28;20432;-29
2022/07/06 10:42:54;;;;;;;5.00;2.05;;;;;;;29.95;31.71;96860.59;5077112;28;19915;-28
2022/07/06 10:45:28;;;;;;;2.95;1.98;;;;;;;29.95;31.63;96852.22;5076875;28;20503;-28
2022/07/06 10:48:11;;;;;;;6.03;2.03;;;;;;;29.98;31.53;96845.56;5076564;28;20031;-29
2022/07/06 10:50:46;;;;;;;5.60;2.30;;;;;;;29.96;31.54;96841.81;5076608;28;20021;-28
2022/07/06 10:53:25;;;;;;;5.80;2.17;;;;;;;29.92;31.54;96847.00;5076515;28;20091;-29
2022/07/06 10:55:55;;;;;;;6.43;2.10;;;;;;;29.92;31.84;96841.41;5076547;28;20051;-28
2022/07/06 10:58:59;;;;;;;7.32;2.13;;;;;;;29.94;31.57;96845.13;5077139;28;20033;-28
2022/07/06 11:01:28;;;;;;;5.90;2.67;;;;;;;29.98;31.84;96833.63;5072230;28;20115;-29
2022/07/06 11:03:57;;;;;;;5.78;2.05;;;;;;;29.86;31.65;96838.72;5076322;28;20394;-28
2022/07/06 11:06:24;;;;;;;4.18;2.10;;;;;;;29.85;31.61;96831.63;5076104;28;20501;-30
2022/07/06 11:08:56;;;;;;;4.43;2.10;;;;;;;30.01;31.32;96832.53;5076352;28;20047;-28
2022/07/06 11:11:31;;;;;;;6.45;1.95;;;;;;;29.98;31.42;96842.03;5076381;28;20043;-28
2022/07/06 11:14:10;;;;;;;4.55;2.22;;;;;;;29.86;31.60;96824.00;5076189;28;20107;-28
2022/07/06 11:16:47;;;;;;;6.70;2.42;;;;;;;29.90;31.63;96825.16;5076139;28;20123;-28
2022/07/06 11:19:14;;;;;;;4.63;2.13;;;;;;;29.92;31.64;96819.03;5076005;28;20090;-28
2022/07/06 11:21:49;;;;;;;4.10;1.85;;;;;;;29.82;31.70;96815.19;5076303;28;20025;-28
2022/07/06 11:24:27;;;;;;;5.82;2.58;;;;;;;29.96;31.57;96820.19;5076000;28;20481;-28
2022/07/06 11:26:53;;;;;;;7.15;2.10;;;;;;;29.73;31.73;96813.63;5076108;28;20028;-28
2022/07/06 11:29:21;;;;;;;6.72;2.53;;;;;;;29.89;31.64;96822.91;5076085;28;20532;-28
2022/07/06 11:31:49;;;;;;;6.47;1.90;;;;;;;29.96;31.42;96825.03;5075911;28;20036;-30
2022/07/06 11:34:22;;;;;;;5.05;2.42;;;;;;;29.92;31.63;96824.63;5075752;28;20020;-28
2022/07/06 11:36:48;;;;;;;;;;;;;;;29.99;31.20;96818.34;5076220;28;20432;-28
2022/07/06 11:39:14;;;;;;;6.68;2.33;;;;;;;29.97;31.15;96804.16;5074643;28;19908;-28